createdAt,value
2022-09-12T00:02:57.601Z,15.73
2022-09-12T00:08:00.243Z,15.72
2022-09-12T00:13:02.009Z,15.65
2022-09-12T00:18:03.921Z,15.65
2022-09-12T00:23:05.719Z,15.64
2022-09-12T00:28:07.472Z,15.59
2022-09-12T00:33:10.019Z,15.53
2022-09-12T00:38:16.326Z,15.49
2022-09-12T00:43:29.996Z,15.48
2022-09-12T00:48:55.962Z,15.45
2022-09-12T00:53:59.492Z,15.48
2022-09-12T00:59:12.208Z,15.43
2022-09-12T01:04:14.300Z,15.44
2022-09-12T01:09:20.434Z,15.42
2022-09-12T01:14:22.026Z,15.38
2022-09-12T01:19:52.432Z,15.44
2022-09-12T01:25:47.044Z,15.42
2022-09-12T01:31:08.861Z,15.45
2022-09-12T01:36:17.139Z,15.46
2022-09-12T01:41:30.522Z,15.42
2022-09-12T01:46:46.954Z,15.46
2022-09-12T01:51:59.105Z,15.49
2022-09-12T01:57:08.715Z,15.48
2022-09-12T02:02:24.161Z,15.51
2022-09-12T02:07:37.969Z,15.44
2022-09-12T02:12:48.864Z,15.40
2022-09-12T02:17:52.328Z,15.38
2022-09-12T02:22:57.417Z,15.41
2022-09-12T02:28:09.589Z,15.43
2022-09-12T02:33:26.760Z,15.47
2022-09-12T02:38:48.702Z,15.47
2022-09-12T02:43:52.691Z,15.52
2022-09-12T02:48:56.116Z,15.53
2022-09-12T02:53:58.128Z,15.55
2022-09-12T02:59:04.870Z,15.56
2022-09-12T03:04:31.309Z,15.57
2022-09-12T03:09:40.206Z,15.53
2022-09-12T03:14:42.041Z,15.53
2022-09-12T03:20:01.198Z,15.48
2022-09-12T03:25:21.961Z,15.45
2022-09-12T03:30:24.499Z,15.40
2022-09-12T03:35:26.661Z,15.37
2022-09-12T03:40:28.218Z,15.33
2022-09-12T03:45:30.402Z,15.31
2022-09-12T03:50:32.449Z,15.28
2022-09-12T03:55:34.263Z,15.26
2022-09-12T04:00:36.117Z,15.24
2022-09-12T04:05:37.984Z,15.23
2022-09-12T04:10:40.135Z,15.17
2022-09-12T04:15:41.989Z,15.17
2022-09-12T04:20:43.553Z,15.17
2022-09-12T04:25:52.960Z,15.09
2022-09-12T04:30:55.882Z,15.03
2022-09-12T04:36:05.204Z,15.00
2022-09-12T04:41:29.008Z,14.98
2022-09-12T04:46:33.333Z,15.01
2022-09-12T04:51:37.501Z,15.00
2022-09-12T04:56:42.174Z,14.78
2022-09-12T05:01:43.973Z,14.82
2022-09-12T05:06:47.444Z,14.87
2022-09-12T05:12:05.619Z,14.89
2022-09-12T05:17:07.972Z,14.96
2022-09-12T05:22:09.970Z,15.00
2022-09-12T05:27:11.885Z,15.04
2022-09-12T05:32:13.746Z,15.20
2022-09-12T05:37:15.540Z,15.32
2022-09-12T05:42:17.331Z,15.33
2022-09-12T05:47:19.201Z,15.37
2022-09-12T05:52:21.001Z,15.40
2022-09-12T05:57:22.862Z,15.43
2022-09-12T06:02:24.739Z,15.15
2022-09-12T06:07:26.648Z,15.16
2022-09-12T06:12:31.028Z,15.19
2022-09-12T06:17:33.069Z,15.36
2022-09-12T06:22:34.710Z,15.72
2022-09-12T06:27:36.472Z,15.96
2022-09-12T06:32:38.247Z,16.07
2022-09-12T06:37:40.695Z,16.16
2022-09-12T06:42:42.357Z,16.34
2022-09-12T06:47:44.130Z,16.53
2022-09-12T06:52:49.474Z,16.68
2022-09-12T06:57:52.274Z,16.89
2022-09-12T07:02:56.546Z,17.08
2022-09-12T07:07:58.612Z,17.12
2022-09-12T07:13:00.413Z,17.21
2022-09-12T07:18:02.812Z,17.35
2022-09-12T07:23:04.619Z,17.40
2022-09-12T07:28:08.014Z,17.38
2022-09-12T07:33:09.681Z,17.43
2022-09-12T07:38:11.456Z,17.51
2022-09-12T07:43:13.253Z,17.60
2022-09-12T07:48:15.092Z,17.57
2022-09-12T07:53:16.885Z,17.60
2022-09-12T07:58:18.480Z,17.64
2022-09-12T08:03:20.510Z,17.67
2022-09-12T08:08:22.311Z,17.75
2022-09-12T08:13:24.541Z,17.69
2022-09-12T08:18:31.002Z,17.77
2022-09-12T08:23:33.533Z,17.81
2022-09-12T08:28:35.934Z,17.89
2022-09-12T08:33:38.173Z,17.94
2022-09-12T08:38:43.753Z,17.91
2022-09-12T08:43:52.054Z,18.00
2022-09-12T08:48:59.207Z,18.02
2022-09-12T08:54:03.061Z,18.11
2022-09-12T08:59:04.678Z,18.18
2022-09-12T09:04:15.556Z,18.29
2022-09-12T09:09:26.372Z,18.42
2022-09-12T09:14:59.013Z,18.56
2022-09-12T09:20:19.218Z,18.60
2022-09-12T09:25:25.269Z,18.67
2022-09-12T09:30:28.696Z,18.68
2022-09-12T09:35:47.536Z,18.60
2022-09-12T09:41:16.257Z,18.64
2022-09-12T09:46:18.501Z,18.71
2022-09-12T09:51:32.853Z,18.75
2022-09-12T09:56:36.530Z,18.93
2022-09-12T10:01:51.983Z,19.25
2022-09-12T10:06:59.087Z,19.57
2022-09-12T10:12:20.564Z,19.58
2022-09-12T10:17:34.302Z,19.61
2022-09-12T10:22:38.369Z,19.95
2022-09-12T10:27:42.146Z,20.01
2022-09-12T10:32:52.241Z,20.25
2022-09-12T10:37:58.560Z,20.46
2022-09-12T10:43:00.818Z,20.76
2022-09-12T10:48:24.480Z,20.94
2022-09-12T10:53:47.898Z,20.92
2022-09-12T10:59:20.105Z,20.72
2022-09-12T11:04:34.602Z,20.83
2022-09-12T11:09:54.716Z,21.08
2022-09-12T11:15:26.495Z,21.24
2022-09-12T11:20:40.954Z,21.40
2022-09-12T11:25:50.386Z,21.68
2022-09-12T11:31:36.526Z,21.84
2022-09-12T11:36:44.303Z,21.99
2022-09-12T11:41:58.030Z,22.15
2022-09-12T11:47:03.919Z,22.37
2022-09-12T11:52:11.839Z,22.29
2022-09-12T11:57:18.437Z,22.32
2022-09-12T12:02:27.713Z,22.59
2022-09-12T12:07:45.171Z,22.75
2022-09-12T12:12:48.632Z,22.60
2022-09-12T12:18:04.825Z,22.62
2022-09-12T12:23:06.737Z,22.61
2022-09-12T12:28:09.122Z,22.59
2022-09-12T12:33:10.968Z,22.71
2022-09-12T12:38:31.205Z,22.57
2022-09-12T12:43:34.612Z,22.38
2022-09-12T12:49:03.321Z,22.20
2022-09-12T12:54:28.205Z,22.14
2022-09-12T12:59:30.817Z,22.16
2022-09-12T13:04:33.926Z,22.10
2022-09-12T13:09:52.585Z,21.93
2022-09-12T13:14:58.386Z,21.87
2022-09-12T13:20:30.111Z,21.95
2022-09-12T13:25:36.726Z,21.86
2022-09-12T13:31:06.101Z,21.77
2022-09-12T13:36:09.917Z,21.76
2022-09-12T13:41:35.782Z,21.70
2022-09-12T13:46:38.155Z,21.68
2022-09-12T13:51:40.566Z,21.66
2022-09-12T13:56:49.962Z,21.57
2022-09-12T14:01:52.203Z,21.53
2022-09-12T14:06:54.388Z,21.54
2022-09-12T14:11:57.756Z,21.62
2022-09-12T14:17:00.548Z,21.62
2022-09-12T14:22:02.537Z,21.65
2022-09-12T14:27:05.013Z,21.83
2022-09-12T14:32:23.191Z,21.99
2022-09-12T14:37:25.313Z,22.04
2022-09-12T14:42:31.138Z,22.14
2022-09-12T14:47:42.455Z,22.16
2022-09-12T14:52:44.409Z,22.11
2022-09-12T14:57:47.900Z,22.05
2022-09-12T15:02:52.069Z,22.10
2022-09-12T15:08:15.912Z,22.10
2022-09-12T15:13:20.629Z,22.11
2022-09-12T15:18:25.836Z,21.98
2022-09-12T15:23:43.007Z,21.91
2022-09-12T15:28:45.394Z,21.96
2022-09-12T15:33:47.319Z,21.85
2022-09-12T15:38:50.726Z,21.84
2022-09-12T15:43:52.599Z,21.80
2022-09-12T15:48:54.189Z,21.77
2022-09-12T15:53:56.015Z,21.58
2022-09-12T15:58:59.664Z,21.32
2022-09-12T16:04:03.363Z,21.19
2022-09-12T16:09:05.769Z,21.19
2022-09-12T16:14:07.971Z,21.12
2022-09-12T16:19:11.090Z,21.16
2022-09-12T16:24:12.858Z,21.12
2022-09-12T16:29:14.721Z,21.08
2022-09-12T16:34:16.522Z,21.00
2022-09-12T16:39:18.488Z,20.90
2022-09-12T16:44:20.056Z,20.85
2022-09-12T16:49:21.895Z,20.81
2022-09-12T16:54:23.878Z,20.71
2022-09-12T16:59:25.636Z,20.64
2022-09-12T17:04:28.804Z,20.29
2022-09-12T17:09:30.457Z,19.38
2022-09-12T17:14:32.305Z,19.20
2022-09-12T17:19:33.991Z,19.15
2022-09-12T17:24:35.822Z,19.14
2022-09-12T17:29:38.691Z,19.05
2022-09-12T17:34:40.852Z,18.86
2022-09-12T17:39:42.794Z,18.67
2022-09-12T17:44:44.569Z,18.53
2022-09-12T17:49:47.591Z,18.51
2022-09-12T17:54:49.521Z,18.22
2022-09-12T17:59:51.609Z,18.05
2022-09-12T18:04:53.374Z,18.04
2022-09-12T18:09:55.349Z,18.03
2022-09-12T18:14:56.994Z,18.00
2022-09-12T18:19:58.688Z,17.89
2022-09-12T18:25:00.588Z,17.69
2022-09-12T18:30:20.619Z,17.63
2022-09-12T18:35:23.130Z,17.67
2022-09-12T18:40:25.864Z,17.57
2022-09-12T18:45:27.554Z,17.54
2022-09-12T18:50:29.382Z,17.60
2022-09-12T18:55:32.069Z,17.70
2022-09-12T19:00:33.854Z,17.62
2022-09-12T19:05:35.709Z,17.60
2022-09-12T19:10:37.526Z,17.56
2022-09-12T19:15:40.236Z,17.49
2022-09-12T19:20:42.049Z,17.42
2022-09-12T19:25:45.461Z,17.41
2022-09-12T19:30:47.761Z,17.36
2022-09-12T19:35:50.292Z,17.32
2022-09-12T19:40:57.022Z,17.25
2022-09-12T19:46:00.243Z,17.22
2022-09-12T19:51:04.664Z,17.13
2022-09-12T19:56:08.729Z,17.10
2022-09-12T20:01:13.526Z,17.01
2022-09-12T20:06:17.792Z,16.94
2022-09-12T20:11:21.662Z,16.86
2022-09-12T20:16:25.797Z,16.83
2022-09-12T20:21:34.202Z,16.76
2022-09-12T20:26:36.382Z,16.69
2022-09-12T20:31:40.709Z,16.45
2022-09-12T20:36:42.861Z,16.30
2022-09-12T20:41:45.002Z,16.21
2022-09-12T20:46:46.903Z,16.20
2022-09-12T20:51:48.961Z,16.19
2022-09-12T20:56:50.773Z,16.17
2022-09-12T21:01:52.409Z,16.13
2022-09-12T21:06:54.361Z,16.06
2022-09-12T21:11:56.057Z,16.03
2022-09-12T21:16:57.725Z,15.99
2022-09-12T21:21:59.360Z,15.95
2022-09-12T21:27:04.168Z,15.92
2022-09-12T21:32:09.943Z,15.88
2022-09-12T21:37:14.182Z,15.82
2022-09-12T21:42:16.052Z,15.78
2022-09-12T21:47:18.046Z,15.71
2022-09-12T21:52:19.924Z,15.58
2022-09-12T21:57:22.465Z,15.35
2022-09-12T22:02:27.481Z,15.37
2022-09-12T22:07:29.642Z,15.36
2022-09-12T22:12:31.388Z,15.34
2022-09-12T22:17:33.229Z,15.23
2022-09-12T22:22:54.818Z,15.11
2022-09-12T22:27:56.610Z,14.98
2022-09-12T22:32:58.439Z,14.92
2022-09-12T22:38:00.131Z,14.88
2022-09-12T22:43:02.612Z,14.89
2022-09-12T22:48:08.590Z,14.87
2022-09-12T22:53:11.286Z,14.85
2022-09-12T22:58:13.081Z,14.85
2022-09-12T23:03:15.057Z,14.83
2022-09-12T23:08:17.781Z,14.88
2022-09-12T23:13:19.573Z,14.93
2022-09-12T23:18:21.144Z,14.96
2022-09-12T23:23:22.814Z,14.96
2022-09-12T23:28:24.597Z,14.96
2022-09-12T23:33:30.679Z,14.92
2022-09-12T23:38:34.125Z,14.88
2022-09-12T23:43:35.837Z,14.84
2022-09-12T23:48:37.757Z,14.77
2022-09-12T23:53:41.310Z,14.76
2022-09-12T23:58:43.209Z,14.72
